sensor_id;sensor_type;location;lat;lon;timestamp;temperature;humidity
39601;DHT22;25297;44.758;11.310;2024-02-26T00:02:16;11.30;87.80
39601;DHT22;25297;44.758;11.310;2024-02-26T00:04:42;11.20;88.20
39601;DHT22;25297;44.758;11.310;2024-02-26T00:07:07;11.20;88.10
39601;DHT22;25297;44.758;11.310;2024-02-26T00:09:33;11.30;88.80
39601;DHT22;25297;44.758;11.310;2024-02-26T00:12:04;11.30;88.90
39601;DHT22;25297;44.758;11.310;2024-02-26T00:14:31;11.30;89.00
39601;DHT22;25297;44.758;11.310;2024-02-26T00:16:56;11.30;88.20
39601;DHT22;25297;44.758;11.310;2024-02-26T00:19:22;11.30;88.40
39601;DHT22;25297;44.758;11.310;2024-02-26T00:21:48;11.20;88.00
39601;DHT22;25297;44.758;11.310;2024-02-26T00:24:13;11.20;88.50
39601;DHT22;25297;44.758;11.310;2024-02-26T00:26:39;11.20;88.90
39601;DHT22;25297;44.758;11.310;2024-02-26T00:29:05;11.20;89.30
39601;DHT22;25297;44.758;11.310;2024-02-26T00:31:30;11.20;89.50
39601;DHT22;25297;44.758;11.310;2024-02-26T00:33:56;11.20;89.30
39601;DHT22;25297;44.758;11.310;2024-02-26T00:36:22;11.20;88.60
39601;DHT22;25297;44.758;11.310;2024-02-26T00:38:48;11.20;89.00
39601;DHT22;25297;44.758;11.310;2024-02-26T00:41:20;11.10;88.30
39601;DHT22;25297;44.758;11.310;2024-02-26T00:43:46;11.10;88.40
39601;DHT22;25297;44.758;11.310;2024-02-26T00:46:11;11.00;88.10
39601;DHT22;25297;44.758;11.310;2024-02-26T00:48:37;11.00;89.00
39601;DHT22;25297;44.758;11.310;2024-02-26T00:51:03;11.00;89.20
39601;DHT22;25297;44.758;11.310;2024-02-26T00:53:31;11.00;89.20
39601;DHT22;25297;44.758;11.310;2024-02-26T00:55:57;11.00;89.10
39601;DHT22;25297;44.758;11.310;2024-02-26T00:58:24;11.00;89.20
39601;DHT22;25297;44.758;11.310;2024-02-26T01:00:50;11.00;89.10
39601;DHT22;25297;44.758;11.310;2024-02-26T01:03:17;10.90;88.80
39601;DHT22;25297;44.758;11.310;2024-02-26T01:05:43;10.80;88.40
39601;DHT22;25297;44.758;11.310;2024-02-26T01:08:08;10.80;89.00
39601;DHT22;25297;44.758;11.310;2024-02-26T01:10:34;10.90;89.50
39601;DHT22;25297;44.758;11.310;2024-02-26T01:13:00;10.90;89.70
39601;DHT22;25297;44.758;11.310;2024-02-26T01:15:26;10.80;88.90
39601;DHT22;25297;44.758;11.310;2024-02-26T01:17:52;10.80;89.40
39601;DHT22;25297;44.758;11.310;2024-02-26T01:20:18;10.70;89.50
39601;DHT22;25297;44.758;11.310;2024-02-26T01:22:44;10.70;89.60
39601;DHT22;25297;44.758;11.310;2024-02-26T01:25:10;10.70;89.70
39601;DHT22;25297;44.758;11.310;2024-02-26T01:27:36;10.70;89.70
39601;DHT22;25297;44.758;11.310;2024-02-26T01:30:03;10.60;89.80
39601;DHT22;25297;44.758;11.310;2024-02-26T01:32:29;10.60;90.00
39601;DHT22;25297;44.758;11.310;2024-02-26T01:34:55;10.70;90.10
39601;DHT22;25297;44.758;11.310;2024-02-26T01:37:21;10.60;90.10
39601;DHT22;25297;44.758;11.310;2024-02-26T01:39:47;10.60;90.10
39601;DHT22;25297;44.758;11.310;2024-02-26T01:42:12;10.60;90.20
39601;DHT22;25297;44.758;11.310;2024-02-26T01:44:38;10.60;90.40
39601;DHT22;25297;44.758;11.310;2024-02-26T01:47:05;10.60;90.40
39601;DHT22;25297;44.758;11.310;2024-02-26T01:49:34;10.60;90.70
39601;DHT22;25297;44.758;11.310;2024-02-26T01:52:01;10.70;90.70
39601;DHT22;25297;44.758;11.310;2024-02-26T01:54:27;10.70;90.70
39601;DHT22;25297;44.758;11.310;2024-02-26T01:56:53;10.70;90.70
39601;DHT22;25297;44.758;11.310;2024-02-26T01:59:19;10.70;90.70
39601;DHT22;25297;44.758;11.310;2024-02-26T02:01:48;10.70;90.90
39601;DHT22;25297;44.758;11.310;2024-02-26T02:04:16;10.70;91.20
39601;DHT22;25297;44.758;11.310;2024-02-26T02:06:42;10.70;91.00
39601;DHT22;25297;44.758;11.310;2024-02-26T02:09:09;10.70;91.00
39601;DHT22;25297;44.758;11.310;2024-02-26T02:11:34;10.80;90.90
39601;DHT22;25297;44.758;11.310;2024-02-26T02:14:00;10.80;90.90
39601;DHT22;25297;44.758;11.310;2024-02-26T02:16:26;10.80;90.80
39601;DHT22;25297;44.758;11.310;2024-02-26T02:18:51;10.90;90.60
39601;DHT22;25297;44.758;11.310;2024-02-26T02:21:17;10.90;90.40
39601;DHT22;25297;44.758;11.310;2024-02-26T02:23:43;10.90;90.20
39601;DHT22;25297;44.758;11.310;2024-02-26T02:26:15;10.90;90.30
39601;DHT22;25297;44.758;11.310;2024-02-26T02:28:41;10.90;90.10
39601;DHT22;25297;44.758;11.310;2024-02-26T02:31:07;10.80;89.10
39601;DHT22;25297;44.758;11.310;2024-02-26T02:33:34;10.80;89.00
39601;DHT22;25297;44.758;11.310;2024-02-26T02:36:00;10.80;89.20
39601;DHT22;25297;44.758;11.310;2024-02-26T02:38:25;10.70;88.80
39601;DHT22;25297;44.758;11.310;2024-02-26T02:40:52;10.70;88.40
39601;DHT22;25297;44.758;11.310;2024-02-26T02:43:17;10.60;87.70
39601;DHT22;25297;44.758;11.310;2024-02-26T02:45:43;10.60;88.20
39601;DHT22;25297;44.758;11.310;2024-02-26T02:48:10;10.50;88.70
39601;DHT22;25297;44.758;11.310;2024-02-26T02:50:36;10.50;89.10
39601;DHT22;25297;44.758;11.310;2024-02-26T02:53:01;10.50;89.40
39601;DHT22;25297;44.758;11.310;2024-02-26T02:55:27;10.50;89.50
39601;DHT22;25297;44.758;11.310;2024-02-26T02:57:53;10.50;89.50
39601;DHT22;25297;44.758;11.310;2024-02-26T03:00:19;10.50;89.50
39601;DHT22;25297;44.758;11.310;2024-02-26T03:02:44;10.40;89.70
39601;DHT22;25297;44.758;11.310;2024-02-26T03:05:10;10.40;89.70
39601;DHT22;25297;44.758;11.310;2024-02-26T03:07:36;10.50;89.70
39601;DHT22;25297;44.758;11.310;2024-02-26T03:10:02;10.50;89.70
39601;DHT22;25297;44.758;11.310;2024-02-26T03:12:27;10.50;89.80
39601;DHT22;25297;44.758;11.310;2024-02-26T03:17:20;10.50;89.20
39601;DHT22;25297;44.758;11.310;2024-02-26T03:19:46;10.50;89.70
39601;DHT22;25297;44.758;11.310;2024-02-26T03:22:13;10.50;89.80
39601;DHT22;25297;44.758;11.310;2024-02-26T03:24:38;10.50;89.80
39601;DHT22;25297;44.758;11.310;2024-02-26T03:27:04;10.40;89.80
39601;DHT22;25297;44.758;11.310;2024-02-26T03:29:35;10.40;90.00
39601;DHT22;25297;44.758;11.310;2024-02-26T03:32:01;10.40;90.00
39601;DHT22;25297;44.758;11.310;2024-02-26T03:34:28;10.40;90.10
39601;DHT22;25297;44.758;11.310;2024-02-26T03:36:54;10.40;90.20
39601;DHT22;25297;44.758;11.310;2024-02-26T03:39:19;10.40;90.20
39601;DHT22;25297;44.758;11.310;2024-02-26T03:41:45;10.40;90.30
39601;DHT22;25297;44.758;11.310;2024-02-26T03:44:11;10.40;90.50
39601;DHT22;25297;44.758;11.310;2024-02-26T03:46:36;10.40;90.50
39601;DHT22;25297;44.758;11.310;2024-02-26T03:49:02;10.50;90.60
39601;DHT22;25297;44.758;11.310;2024-02-26T03:51:27;10.50;90.60
39601;DHT22;25297;44.758;11.310;2024-02-26T03:53:57;10.50;90.50
39601;DHT22;25297;44.758;11.310;2024-02-26T03:56:23;10.50;90.70
39601;DHT22;25297;44.758;11.310;2024-02-26T03:58:49;10.50;90.70
39601;DHT22;25297;44.758;11.310;2024-02-26T04:01:15;10.60;90.70
39601;DHT22;25297;44.758;11.310;2024-02-26T04:03:41;10.60;90.70
39601;DHT22;25297;44.758;11.310;2024-02-26T04:06:11;10.60;90.60
39601;DHT22;25297;44.758;11.310;2024-02-26T04:08:37;10.70;90.50
39601;DHT22;25297;44.758;11.310;2024-02-26T04:11:03;10.70;90.50
39601;DHT22;25297;44.758;11.310;2024-02-26T04:13:36;10.70;90.30
39601;DHT22;25297;44.758;11.310;2024-02-26T04:16:05;10.70;90.20
39601;DHT22;25297;44.758;11.310;2024-02-26T04:18:31;10.80;90.10
39601;DHT22;25297;44.758;11.310;2024-02-26T04:20:57;10.80;90.10
39601;DHT22;25297;44.758;11.310;2024-02-26T04:23:23;10.80;90.10
39601;DHT22;25297;44.758;11.310;2024-02-26T04:25:49;10.80;90.00
39601;DHT22;25297;44.758;11.310;2024-02-26T04:28:14;10.80;89.90
39601;DHT22;25297;44.758;11.310;2024-02-26T04:30:41;10.80;89.70
39601;DHT22;25297;44.758;11.310;2024-02-26T04:33:07;10.90;89.80
39601;DHT22;25297;44.758;11.310;2024-02-26T04:35:32;10.90;89.90
39601;DHT22;25297;44.758;11.310;2024-02-26T04:38:00;10.90;89.80
39601;DHT22;25297;44.758;11.310;2024-02-26T04:40:26;11.00;90.00
39601;DHT22;25297;44.758;11.310;2024-02-26T04:42:51;10.90;90.00
39601;DHT22;25297;44.758;11.310;2024-02-26T04:45:17;11.00;90.10
39601;DHT22;25297;44.758;11.310;2024-02-26T04:47:43;10.90;90.10
39601;DHT22;25297;44.758;11.310;2024-02-26T04:50:09;11.00;90.10
39601;DHT22;25297;44.758;11.310;2024-02-26T04:52:34;10.90;90.00
39601;DHT22;25297;44.758;11.310;2024-02-26T04:55:01;11.00;90.00
39601;DHT22;25297;44.758;11.310;2024-02-26T04:57:28;11.00;89.80
39601;DHT22;25297;44.758;11.310;2024-02-26T04:59:53;11.00;89.60
39601;DHT22;25297;44.758;11.310;2024-02-26T05:02:19;11.00;89.50
39601;DHT22;25297;44.758;11.310;2024-02-26T05:04:44;11.00;89.30
39601;DHT22;25297;44.758;11.310;2024-02-26T05:07:10;11.00;88.90
39601;DHT22;25297;44.758;11.310;2024-02-26T05:09:37;11.00;89.40
39601;DHT22;25297;44.758;11.310;2024-02-26T05:12:03;11.00;89.40
39601;DHT22;25297;44.758;11.310;2024-02-26T05:14:29;11.00;89.40
39601;DHT22;25297;44.758;11.310;2024-02-26T05:16:54;11.00;89.40
39601;DHT22;25297;44.758;11.310;2024-02-26T05:19:21;11.00;89.40
39601;DHT22;25297;44.758;11.310;2024-02-26T05:21:47;11.00;89.30
39601;DHT22;25297;44.758;11.310;2024-02-26T05:24:14;11.00;89.20
39601;DHT22;25297;44.758;11.310;2024-02-26T05:26:41;11.00;89.10
39601;DHT22;25297;44.758;11.310;2024-02-26T05:29:06;11.00;89.90
39601;DHT22;25297;44.758;11.310;2024-02-26T05:31:32;11.00;89.30
39601;DHT22;25297;44.758;11.310;2024-02-26T05:33:58;11.00;89.50
39601;DHT22;25297;44.758;11.310;2024-02-26T05:36:24;11.10;89.60
39601;DHT22;25297;44.758;11.310;2024-02-26T05:38:50;11.00;89.70
39601;DHT22;25297;44.758;11.310;2024-02-26T05:41:17;11.10;89.90
39601;DHT22;25297;44.758;11.310;2024-02-26T05:43:48;11.10;89.90
39601;DHT22;25297;44.758;11.310;2024-02-26T05:46:17;11.10;89.30
39601;DHT22;25297;44.758;11.310;2024-02-26T05:48:43;11.00;89.60
39601;DHT22;25297;44.758;11.310;2024-02-26T05:51:09;11.10;89.70
39601;DHT22;25297;44.758;11.310;2024-02-26T05:53:35;11.10;89.40
39601;DHT22;25297;44.758;11.310;2024-02-26T05:56:00;11.00;88.70
39601;DHT22;25297;44.758;11.310;2024-02-26T05:58:26;11.00;88.90
39601;DHT22;25297;44.758;11.310;2024-02-26T06:00:52;11.00;89.20
39601;DHT22;25297;44.758;11.310;2024-02-26T06:03:17;11.00;89.50
39601;DHT22;25297;44.758;11.310;2024-02-26T06:05:43;11.00;89.90
39601;DHT22;25297;44.758;11.310;2024-02-26T06:08:09;11.00;89.90
39601;DHT22;25297;44.758;11.310;2024-02-26T06:10:34;11.00;89.80
39601;DHT22;25297;44.758;11.310;2024-02-26T06:13:00;11.00;89.70
39601;DHT22;25297;44.758;11.310;2024-02-26T06:15:26;11.00;89.80
39601;DHT22;25297;44.758;11.310;2024-02-26T06:17:51;11.00;89.90
39601;DHT22;25297;44.758;11.310;2024-02-26T06:20:17;11.00;89.30
39601;DHT22;25297;44.758;11.310;2024-02-26T06:22:42;11.00;89.10
39601;DHT22;25297;44.758;11.310;2024-02-26T06:25:08;11.00;89.70
39601;DHT22;25297;44.758;11.310;2024-02-26T06:27:35;11.00;90.10
39601;DHT22;25297;44.758;11.310;2024-02-26T06:30:00;11.00;90.00
39601;DHT22;25297;44.758;11.310;2024-02-26T06:32:26;11.00;90.00
39601;DHT22;25297;44.758;11.310;2024-02-26T06:34:55;11.10;90.00
39601;DHT22;25297;44.758;11.310;2024-02-26T06:37:21;11.10;90.00
39601;DHT22;25297;44.758;11.310;2024-02-26T06:39:47;11.10;90.10
39601;DHT22;25297;44.758;11.310;2024-02-26T06:42:13;11.10;90.00
39601;DHT22;25297;44.758;11.310;2024-02-26T06:44:39;11.10;90.00
39601;DHT22;25297;44.758;11.310;2024-02-26T06:47:05;11.10;89.50
39601;DHT22;25297;44.758;11.310;2024-02-26T06:49:31;11.20;89.80
39601;DHT22;25297;44.758;11.310;2024-02-26T06:51:56;11.20;89.60
39601;DHT22;25297;44.758;11.310;2024-02-26T06:54:22;11.20;89.30
39601;DHT22;25297;44.758;11.310;2024-02-26T06:56:48;11.20;89.60
39601;DHT22;25297;44.758;11.310;2024-02-26T06:59:14;11.20;89.90
39601;DHT22;25297;44.758;11.310;2024-02-26T07:01:42;11.20;89.90
39601;DHT22;25297;44.758;11.310;2024-02-26T07:04:08;11.20;89.90
39601;DHT22;25297;44.758;11.310;2024-02-26T07:06:36;11.20;90.00
39601;DHT22;25297;44.758;11.310;2024-02-26T07:09:02;11.30;90.00
39601;DHT22;25297;44.758;11.310;2024-02-26T07:11:27;11.30;90.00
39601;DHT22;25297;44.758;11.310;2024-02-26T07:13:53;11.30;90.00
39601;DHT22;25297;44.758;11.310;2024-02-26T07:16:19;11.30;90.10
39601;DHT22;25297;44.758;11.310;2024-02-26T07:19:42;11.30;89.50
39601;DHT22;25297;44.758;11.310;2024-02-26T07:22:08;11.30;90.10
39601;DHT22;25297;44.758;11.310;2024-02-26T07:24:33;11.30;90.20
39601;DHT22;25297;44.758;11.310;2024-02-26T07:26:59;11.30;90.20
39601;DHT22;25297;44.758;11.310;2024-02-26T07:29:25;11.30;90.20
39601;DHT22;25297;44.758;11.310;2024-02-26T07:31:50;11.30;90.10
39601;DHT22;25297;44.758;11.310;2024-02-26T07:34:16;11.30;90.00
39601;DHT22;25297;44.758;11.310;2024-02-26T07:36:42;11.30;90.00
39601;DHT22;25297;44.758;11.310;2024-02-26T07:39:08;11.30;90.10
39601;DHT22;25297;44.758;11.310;2024-02-26T07:41:33;11.20;90.20
39601;DHT22;25297;44.758;11.310;2024-02-26T07:43:59;11.20;90.40
39601;DHT22;25297;44.758;11.310;2024-02-26T07:46:25;11.20;90.60
39601;DHT22;25297;44.758;11.310;2024-02-26T07:48:50;11.30;90.90
39601;DHT22;25297;44.758;11.310;2024-02-26T07:51:16;11.30;90.90
39601;DHT22;25297;44.758;11.310;2024-02-26T07:53:43;11.40;90.90
39601;DHT22;25297;44.758;11.310;2024-02-26T07:56:09;11.40;90.90
39601;DHT22;25297;44.758;11.310;2024-02-26T07:58:35;11.50;90.90
39601;DHT22;25297;44.758;11.310;2024-02-26T08:01:00;11.40;90.70
39601;DHT22;25297;44.758;11.310;2024-02-26T08:03:26;11.40;90.70
39601;DHT22;25297;44.758;11.310;2024-02-26T08:05:52;11.40;90.80
39601;DHT22;25297;44.758;11.310;2024-02-26T08:08:17;11.50;90.90
39601;DHT22;25297;44.758;11.310;2024-02-26T08:10:43;11.50;90.90
39601;DHT22;25297;44.758;11.310;2024-02-26T08:13:09;11.50;90.90
39601;DHT22;25297;44.758;11.310;2024-02-26T08:15:35;11.50;90.90
39601;DHT22;25297;44.758;11.310;2024-02-26T08:18:03;11.60;90.90
39601;DHT22;25297;44.758;11.310;2024-02-26T08:20:29;11.60;90.90
39601;DHT22;25297;44.758;11.310;2024-02-26T08:22:56;11.60;90.70
39601;DHT22;25297;44.758;11.310;2024-02-26T08:25:22;11.60;90.60
39601;DHT22;25297;44.758;11.310;2024-02-26T08:27:48;11.60;90.80
39601;DHT22;25297;44.758;11.310;2024-02-26T08:30:16;11.70;90.90
39601;DHT22;25297;44.758;11.310;2024-02-26T08:32:48;11.70;90.60
39601;DHT22;25297;44.758;11.310;2024-02-26T08:35:14;11.70;90.70
39601;DHT22;25297;44.758;11.310;2024-02-26T08:37:40;11.70;90.60
39601;DHT22;25297;44.758;11.310;2024-02-26T08:40:06;11.70;90.50
39601;DHT22;25297;44.758;11.310;2024-02-26T08:42:32;11.80;90.70
39601;DHT22;25297;44.758;11.310;2024-02-26T08:44:58;11.80;91.00
39601;DHT22;25297;44.758;11.310;2024-02-26T08:47:26;11.80;91.00
39601;DHT22;25297;44.758;11.310;2024-02-26T08:49:53;11.90;91.00
39601;DHT22;25297;44.758;11.310;2024-02-26T08:52:19;11.90;91.00
39601;DHT22;25297;44.758;11.310;2024-02-26T08:54:45;11.90;90.90
39601;DHT22;25297;44.758;11.310;2024-02-26T08:57:11;11.90;90.90
39601;DHT22;25297;44.758;11.310;2024-02-26T08:59:36;12.00;91.00
39601;DHT22;25297;44.758;11.310;2024-02-26T09:02:02;12.00;91.00
39601;DHT22;25297;44.758;11.310;2024-02-26T09:04:28;12.00;91.20
39601;DHT22;25297;44.758;11.310;2024-02-26T09:06:53;12.10;91.20
39601;DHT22;25297;44.758;11.310;2024-02-26T09:09:20;12.10;91.40
39601;DHT22;25297;44.758;11.310;2024-02-26T09:11:47;12.20;91.60
39601;DHT22;25297;44.758;11.310;2024-02-26T09:14:14;12.20;91.40
39601;DHT22;25297;44.758;11.310;2024-02-26T09:16:39;12.30;91.40
39601;DHT22;25297;44.758;11.310;2024-02-26T09:19:05;12.30;91.50
39601;DHT22;25297;44.758;11.310;2024-02-26T09:21:30;12.40;91.70
39601;DHT22;25297;44.758;11.310;2024-02-26T09:23:56;12.40;91.60
39601;DHT22;25297;44.758;11.310;2024-02-26T09:26:22;12.50;91.30
39601;DHT22;25297;44.758;11.310;2024-02-26T09:28:47;12.50;91.50
39601;DHT22;25297;44.758;11.310;2024-02-26T09:31:15;12.50;91.40
39601;DHT22;25297;44.758;11.310;2024-02-26T09:33:42;12.60;91.20
39601;DHT22;25297;44.758;11.310;2024-02-26T09:36:07;12.70;90.90
39601;DHT22;25297;44.758;11.310;2024-02-26T09:38:34;12.70;91.20
39601;DHT22;25297;44.758;11.310;2024-02-26T09:41:06;12.80;91.30
39601;DHT22;25297;44.758;11.310;2024-02-26T09:43:35;12.80;91.50
39601;DHT22;25297;44.758;11.310;2024-02-26T09:46:05;12.80;91.40
39601;DHT22;25297;44.758;11.310;2024-02-26T09:48:32;12.90;91.20
39601;DHT22;25297;44.758;11.310;2024-02-26T09:50:59;12.90;90.80
39601;DHT22;25297;44.758;11.310;2024-02-26T09:53:27;12.90;90.50
39601;DHT22;25297;44.758;11.310;2024-02-26T09:55:54;12.90;90.20
39601;DHT22;25297;44.758;11.310;2024-02-26T09:58:20;12.90;90.00
39601;DHT22;25297;44.758;11.310;2024-02-26T10:00:57;12.90;89.50
39601;DHT22;25297;44.758;11.310;2024-02-26T10:03:31;13.00;89.50
39601;DHT22;25297;44.758;11.310;2024-02-26T10:05:57;13.00;89.30
39601;DHT22;25297;44.758;11.310;2024-02-26T10:08:23;13.00;89.60
39601;DHT22;25297;44.758;11.310;2024-02-26T10:10:50;13.10;88.90
39601;DHT22;25297;44.758;11.310;2024-02-26T10:13:16;13.10;87.70
39601;DHT22;25297;44.758;11.310;2024-02-26T10:15:41;13.10;86.90
39601;DHT22;25297;44.758;11.310;2024-02-26T10:18:07;13.20;86.40
39601;DHT22;25297;44.758;11.310;2024-02-26T10:20:33;13.20;86.70
39601;DHT22;25297;44.758;11.310;2024-02-26T10:23:02;13.30;87.10
39601;DHT22;25297;44.758;11.310;2024-02-26T10:25:28;13.40;87.30
39601;DHT22;25297;44.758;11.310;2024-02-26T10:27:53;13.40;87.70
39601;DHT22;25297;44.758;11.310;2024-02-26T10:30:21;13.50;88.10
39601;DHT22;25297;44.758;11.310;2024-02-26T10:32:48;13.60;88.60
39601;DHT22;25297;44.758;11.310;2024-02-26T10:35:15;13.60;87.90
39601;DHT22;25297;44.758;11.310;2024-02-26T10:37:42;13.70;88.30
39601;DHT22;25297;44.758;11.310;2024-02-26T10:40:16;13.70;88.40
39601;DHT22;25297;44.758;11.310;2024-02-26T10:42:43;13.80;88.70
39601;DHT22;25297;44.758;11.310;2024-02-26T10:45:10;13.80;88.90
39601;DHT22;25297;44.758;11.310;2024-02-26T10:47:36;13.90;88.90
39601;DHT22;25297;44.758;11.310;2024-02-26T10:50:04;13.90;88.50
39601;DHT22;25297;44.758;11.310;2024-02-26T10:52:34;13.90;88.20
39601;DHT22;25297;44.758;11.310;2024-02-26T10:55:02;13.90;88.60
39601;DHT22;25297;44.758;11.310;2024-02-26T10:57:33;14.00;88.80
39601;DHT22;25297;44.758;11.310;2024-02-26T11:00:00;14.00;88.60
39601;DHT22;25297;44.758;11.310;2024-02-26T11:02:32;14.10;88.50
39601;DHT22;25297;44.758;11.310;2024-02-26T11:05:01;14.10;88.70
39601;DHT22;25297;44.758;11.310;2024-02-26T11:07:28;14.10;88.80
39601;DHT22;25297;44.758;11.310;2024-02-26T11:09:55;14.10;89.00
39601;DHT22;25297;44.758;11.310;2024-02-26T11:12:22;14.20;89.20
39601;DHT22;25297;44.758;11.310;2024-02-26T11:14:50;14.20;88.90
39601;DHT22;25297;44.758;11.310;2024-02-26T11:17:21;14.20;88.50
39601;DHT22;25297;44.758;11.310;2024-02-26T11:19:47;14.20;87.30
39601;DHT22;25297;44.758;11.310;2024-02-26T11:22:15;14.10;86.90
39601;DHT22;25297;44.758;11.310;2024-02-26T11:24:40;14.10;86.80
39601;DHT22;25297;44.758;11.310;2024-02-26T11:27:10;14.10;86.20
39601;DHT22;25297;44.758;11.310;2024-02-26T11:29:44;14.20;86.80
39601;DHT22;25297;44.758;11.310;2024-02-26T11:32:12;14.20;87.20
39601;DHT22;25297;44.758;11.310;2024-02-26T11:34:38;14.20;87.90
39601;DHT22;25297;44.758;11.310;2024-02-26T11:37:14;14.10;88.50
39601;DHT22;25297;44.758;11.310;2024-02-26T11:39:45;14.10;89.30
39601;DHT22;25297;44.758;11.310;2024-02-26T11:42:14;14.10;90.00
39601;DHT22;25297;44.758;11.310;2024-02-26T11:44:40;14.10;89.30
39601;DHT22;25297;44.758;11.310;2024-02-26T11:47:23;14.10;89.00
39601;DHT22;25297;44.758;11.310;2024-02-26T11:49:49;14.10;89.60
39601;DHT22;25297;44.758;11.310;2024-02-26T11:52:15;14.00;90.00
39601;DHT22;25297;44.758;11.310;2024-02-26T11:54:51;14.10;90.20
39601;DHT22;25297;44.758;11.310;2024-02-26T11:59:47;14.10;90.70
39601;DHT22;25297;44.758;11.310;2024-02-26T12:05:21;14.10;91.00
39601;DHT22;25297;44.758;11.310;2024-02-26T12:08:00;14.10;91.10
39601;DHT22;25297;44.758;11.310;2024-02-26T12:10:33;14.10;91.30
39601;DHT22;25297;44.758;11.310;2024-02-26T12:13:14;14.10;91.60
39601;DHT22;25297;44.758;11.310;2024-02-26T12:15:44;14.10;91.60
39601;DHT22;25297;44.758;11.310;2024-02-26T12:18:16;14.10;91.90
39601;DHT22;25297;44.758;11.310;2024-02-26T12:20:42;14.10;92.20
39601;DHT22;25297;44.758;11.310;2024-02-26T12:23:14;14.10;92.40
39601;DHT22;25297;44.758;11.310;2024-02-26T12:25:40;14.10;92.60
39601;DHT22;25297;44.758;11.310;2024-02-26T12:28:07;14.10;92.80
39601;DHT22;25297;44.758;11.310;2024-02-26T12:30:32;14.10;93.00
39601;DHT22;25297;44.758;11.310;2024-02-26T12:32:59;14.10;93.10
39601;DHT22;25297;44.758;11.310;2024-02-26T12:35:26;14.10;93.20
39601;DHT22;25297;44.758;11.310;2024-02-26T12:37:53;14.20;93.20
39601;DHT22;25297;44.758;11.310;2024-02-26T12:40:20;14.20;93.40
39601;DHT22;25297;44.758;11.310;2024-02-26T12:42:46;14.20;93.50
39601;DHT22;25297;44.758;11.310;2024-02-26T12:45:12;14.20;93.50
39601;DHT22;25297;44.758;11.310;2024-02-26T12:47:39;14.20;93.40
39601;DHT22;25297;44.758;11.310;2024-02-26T12:50:05;14.20;93.10
39601;DHT22;25297;44.758;11.310;2024-02-26T12:52:37;14.20;93.00
39601;DHT22;25297;44.758;11.310;2024-02-26T12:55:05;14.20;93.20
39601;DHT22;25297;44.758;11.310;2024-02-26T12:57:33;14.30;93.70
39601;DHT22;25297;44.758;11.310;2024-02-26T13:00:02;14.30;93.40
39601;DHT22;25297;44.758;11.310;2024-02-26T13:02:30;14.30;93.30
39601;DHT22;25297;44.758;11.310;2024-02-26T13:04:57;14.40;92.90
39601;DHT22;25297;44.758;11.310;2024-02-26T13:07:22;14.40;92.70
39601;DHT22;25297;44.758;11.310;2024-02-26T13:09:48;14.40;92.50
39601;DHT22;25297;44.758;11.310;2024-02-26T13:12:14;14.40;92.10
39601;DHT22;25297;44.758;11.310;2024-02-26T13:14:40;14.40;91.60
39601;DHT22;25297;44.758;11.310;2024-02-26T13:17:06;14.40;91.30
39601;DHT22;25297;44.758;11.310;2024-02-26T13:19:31;14.40;91.40
39601;DHT22;25297;44.758;11.310;2024-02-26T13:22:07;14.40;91.30
39601;DHT22;25297;44.758;11.310;2024-02-26T13:24:36;14.40;91.10
39601;DHT22;25297;44.758;11.310;2024-02-26T13:27:04;14.40;91.10
39601;DHT22;25297;44.758;11.310;2024-02-26T13:29:31;14.40;91.00
39601;DHT22;25297;44.758;11.310;2024-02-26T13:32:00;14.40;91.10
39601;DHT22;25297;44.758;11.310;2024-02-26T13:34:29;14.40;91.20
39601;DHT22;25297;44.758;11.310;2024-02-26T13:36:56;14.40;91.10
39601;DHT22;25297;44.758;11.310;2024-02-26T13:39:23;14.40;91.20
39601;DHT22;25297;44.758;11.310;2024-02-26T13:41:49;14.40;91.10
39601;DHT22;25297;44.758;11.310;2024-02-26T13:44:15;14.40;91.30
39601;DHT22;25297;44.758;11.310;2024-02-26T13:46:41;14.40;91.30
39601;DHT22;25297;44.758;11.310;2024-02-26T13:49:08;14.40;91.40
39601;DHT22;25297;44.758;11.310;2024-02-26T13:51:34;14.40;91.30
39601;DHT22;25297;44.758;11.310;2024-02-26T13:54:02;14.40;91.30
39601;DHT22;25297;44.758;11.310;2024-02-26T13:56:28;14.40;91.20
39601;DHT22;25297;44.758;11.310;2024-02-26T13:58:53;14.40;91.20
39601;DHT22;25297;44.758;11.310;2024-02-26T14:01:19;14.30;91.00
39601;DHT22;25297;44.758;11.310;2024-02-26T14:03:45;14.40;91.10
39601;DHT22;25297;44.758;11.310;2024-02-26T14:06:11;14.40;91.20
39601;DHT22;25297;44.758;11.310;2024-02-26T14:08:37;14.40;91.30
39601;DHT22;25297;44.758;11.310;2024-02-26T14:11:02;14.40;91.30
39601;DHT22;25297;44.758;11.310;2024-02-26T14:13:28;14.40;91.40
39601;DHT22;25297;44.758;11.310;2024-02-26T14:15:54;14.40;91.20
39601;DHT22;25297;44.758;11.310;2024-02-26T14:18:19;14.50;90.90
39601;DHT22;25297;44.758;11.310;2024-02-26T14:20:45;14.50;90.80
39601;DHT22;25297;44.758;11.310;2024-02-26T14:23:11;14.50;90.60
39601;DHT22;25297;44.758;11.310;2024-02-26T14:25:37;14.60;89.60
39601;DHT22;25297;44.758;11.310;2024-02-26T14:28:02;14.60;90.00
39601;DHT22;25297;44.758;11.310;2024-02-26T14:30:28;14.60;89.60
39601;DHT22;25297;44.758;11.310;2024-02-26T14:32:54;14.70;89.40
39601;DHT22;25297;44.758;11.310;2024-02-26T14:35:20;14.70;88.80
39601;DHT22;25297;44.758;11.310;2024-02-26T14:37:46;14.70;88.30
39601;DHT22;25297;44.758;11.310;2024-02-26T14:40:13;14.70;87.60
39601;DHT22;25297;44.758;11.310;2024-02-26T14:42:40;14.70;87.40
39601;DHT22;25297;44.758;11.310;2024-02-26T14:45:06;14.70;87.30
39601;DHT22;25297;44.758;11.310;2024-02-26T14:47:37;14.70;87.00
39601;DHT22;25297;44.758;11.310;2024-02-26T14:50:04;14.70;87.60
39601;DHT22;25297;44.758;11.310;2024-02-26T14:52:30;14.60;87.40
39601;DHT22;25297;44.758;11.310;2024-02-26T14:54:56;14.70;86.80
39601;DHT22;25297;44.758;11.310;2024-02-26T14:57:23;14.60;86.40
39601;DHT22;25297;44.758;11.310;2024-02-26T14:59:49;14.60;86.70
39601;DHT22;25297;44.758;11.310;2024-02-26T15:02:16;14.60;87.20
39601;DHT22;25297;44.758;11.310;2024-02-26T15:04:41;14.60;87.60
39601;DHT22;25297;44.758;11.310;2024-02-26T15:07:07;14.60;87.30
39601;DHT22;25297;44.758;11.310;2024-02-26T15:09:33;14.60;87.70
39601;DHT22;25297;44.758;11.310;2024-02-26T15:12:00;14.60;87.90
39601;DHT22;25297;44.758;11.310;2024-02-26T15:14:25;14.60;87.90
39601;DHT22;25297;44.758;11.310;2024-02-26T15:16:52;14.60;87.80
39601;DHT22;25297;44.758;11.310;2024-02-26T15:19:18;14.60;87.40
39601;DHT22;25297;44.758;11.310;2024-02-26T15:21:44;14.50;87.40